createdAt,value
2023-03-16T00:02:20.264Z,-2.77
2023-03-16T00:05:29.674Z,-2.78
2023-03-16T00:08:44.156Z,-2.75
2023-03-16T00:11:54.133Z,-2.74
2023-03-16T00:15:04.644Z,-2.71
2023-03-16T00:18:18.828Z,-2.69
2023-03-16T00:21:24.349Z,-2.71
2023-03-16T00:24:32.359Z,-2.72
2023-03-16T00:27:37.845Z,-2.74
2023-03-16T00:30:49.280Z,-2.72
2023-03-16T00:34:02.900Z,-2.72
2023-03-16T00:37:17.180Z,-2.74
2023-03-16T00:40:37.254Z,-2.71
2023-03-16T00:43:44.887Z,-2.69
2023-03-16T00:47:04.153Z,-2.66
2023-03-16T00:50:15.683Z,-2.67
2023-03-16T00:53:30.429Z,-2.69
2023-03-16T00:56:43.083Z,-2.74
2023-03-16T01:00:02.409Z,-2.79
2023-03-16T01:03:10.972Z,-2.84
2023-03-16T01:06:20.962Z,-2.86
2023-03-16T01:09:30.630Z,-2.85
2023-03-16T01:12:49.118Z,-2.81
2023-03-16T01:15:57.340Z,-2.82
2023-03-16T01:19:02.924Z,-2.85
2023-03-16T01:22:13.233Z,-2.90
2023-03-16T01:25:24.296Z,-2.96
2023-03-16T01:28:34.251Z,-3.03
2023-03-16T01:31:39.878Z,-3.08
2023-03-16T01:34:45.975Z,-3.10
2023-03-16T01:37:56.863Z,-3.10
2023-03-16T01:41:04.862Z,-3.04
2023-03-16T01:44:14.225Z,-2.99
2023-03-16T01:47:20.060Z,-2.91
2023-03-16T01:50:28.899Z,-2.83
2023-03-16T01:53:37.198Z,-2.75
2023-03-16T01:56:50.431Z,-2.65
2023-03-16T02:00:09.786Z,-2.55
2023-03-16T02:03:34.653Z,-2.43
2023-03-16T02:06:50.444Z,-2.33
2023-03-16T02:10:02.482Z,-2.22
2023-03-16T02:13:11.254Z,-2.12
2023-03-16T02:16:22.747Z,-2.03
2023-03-16T02:19:39.625Z,-1.94
2023-03-16T02:23:06.078Z,-1.84
2023-03-16T02:26:17.295Z,-1.76
2023-03-16T02:29:30.161Z,-1.71
2023-03-16T02:32:39.075Z,-1.68
2023-03-16T02:35:44.666Z,-1.66
2023-03-16T02:38:52.500Z,-1.67
2023-03-16T02:42:01.454Z,-1.71
2023-03-16T02:45:08.278Z,-1.77
2023-03-16T02:48:28.218Z,-1.87
2023-03-16T02:51:33.919Z,-1.98
2023-03-16T02:54:49.471Z,-2.08
2023-03-16T02:58:05.499Z,-2.15
2023-03-16T03:01:13.449Z,-2.21
2023-03-16T03:04:23.492Z,-2.26
2023-03-16T03:07:31.933Z,-2.29
2023-03-16T03:10:42.920Z,-2.36
2023-03-16T03:13:51.047Z,-2.43
2023-03-16T03:17:00.053Z,-2.47
2023-03-16T03:20:17.815Z,-2.50
2023-03-16T03:23:32.261Z,-2.55
2023-03-16T03:26:40.045Z,-2.59
2023-03-16T03:29:48.560Z,-2.62
2023-03-16T03:32:56.843Z,-2.61
2023-03-16T03:36:04.819Z,-2.59
2023-03-16T03:39:13.608Z,-2.53
2023-03-16T03:42:28.455Z,-2.47
2023-03-16T03:45:40.523Z,-2.42
2023-03-16T03:48:46.274Z,-2.40
2023-03-16T03:51:52.114Z,-2.42
2023-03-16T03:55:14.144Z,-2.48
2023-03-16T03:58:19.848Z,-2.56
2023-03-16T04:01:32.621Z,-2.63
2023-03-16T04:04:38.864Z,-2.70
2023-03-16T04:07:44.279Z,-2.76
2023-03-16T04:11:02.065Z,-2.81
2023-03-16T04:14:07.815Z,-2.86
2023-03-16T04:17:17.114Z,-2.87
2023-03-16T04:20:34.277Z,-2.92
2023-03-16T04:23:42.638Z,-2.95
2023-03-16T04:26:48.648Z,-2.97
2023-03-16T04:30:11.261Z,-2.97
2023-03-16T04:33:19.941Z,-2.97
2023-03-16T04:36:28.209Z,-2.97
2023-03-16T04:39:36.078Z,-2.97
2023-03-16T04:42:41.952Z,-2.93
2023-03-16T04:45:55.162Z,-2.89
2023-03-16T04:49:19.587Z,-2.82
2023-03-16T04:52:45.256Z,-2.79
2023-03-16T04:55:53.150Z,-2.77
2023-03-16T04:59:01.826Z,-2.76
2023-03-16T05:02:11.429Z,-2.78
2023-03-16T05:05:26.989Z,-2.82
2023-03-16T05:08:35.525Z,-2.85
2023-03-16T05:11:54.832Z,-2.87
2023-03-16T05:15:00.510Z,-2.89
2023-03-16T05:18:34.856Z,-2.89
2023-03-16T05:21:45.807Z,-2.91
2023-03-16T05:24:56.515Z,-2.94
2023-03-16T05:28:06.481Z,-2.96
2023-03-16T05:31:20.575Z,-2.96
2023-03-16T05:34:35.739Z,-2.96
2023-03-16T05:37:52.835Z,-2.94
2023-03-16T05:41:05.925Z,-2.86
2023-03-16T05:44:34.654Z,-2.77
2023-03-16T05:48:12.210Z,-2.60
2023-03-16T05:51:37.884Z,-2.39
2023-03-16T05:54:45.826Z,-2.22
2023-03-16T05:57:54.426Z,-2.04
2023-03-16T06:01:12.833Z,-1.85
2023-03-16T06:04:19.653Z,-1.66
2023-03-16T06:07:26.016Z,-1.49
2023-03-16T06:10:35.857Z,-1.32
2023-03-16T06:13:51.385Z,-1.16
2023-03-16T06:17:10.385Z,-1.03
2023-03-16T06:20:19.503Z,-0.92
2023-03-16T06:23:30.599Z,-0.76
2023-03-16T06:26:41.546Z,-0.65
2023-03-16T06:29:49.392Z,-0.54
2023-03-16T06:33:00.162Z,-0.48
2023-03-16T06:36:09.592Z,-0.41
2023-03-16T06:39:18.120Z,-0.33
2023-03-16T06:42:26.775Z,-0.26
2023-03-16T06:45:35.786Z,-0.22
2023-03-16T06:48:42.103Z,-0.18
2023-03-16T06:51:47.847Z,-0.17
2023-03-16T06:54:53.742Z,-0.12
2023-03-16T06:58:03.362Z,-0.08
2023-03-16T07:01:09.010Z,-0.04
2023-03-16T07:04:16.959Z,0.03
2023-03-16T07:07:24.536Z,0.13
2023-03-16T07:10:32.527Z,0.23
2023-03-16T07:13:38.429Z,0.32
2023-03-16T07:16:44.786Z,0.40
2023-03-16T07:19:50.781Z,0.52
2023-03-16T07:22:57.256Z,0.65
2023-03-16T07:26:03.710Z,0.78
2023-03-16T07:29:10.868Z,0.87
2023-03-16T07:32:17.281Z,1.00
2023-03-16T07:35:28.431Z,1.19
2023-03-16T07:38:41.422Z,1.36
2023-03-16T07:41:49.765Z,1.40
2023-03-16T07:44:58.985Z,1.47
2023-03-16T07:48:07.311Z,1.59
2023-03-16T07:51:19.825Z,1.71
2023-03-16T07:54:36.001Z,1.84
2023-03-16T07:57:47.943Z,1.96
2023-03-16T08:00:58.810Z,2.06
2023-03-16T08:04:04.815Z,2.11
2023-03-16T08:07:15.484Z,2.28
2023-03-16T08:10:39.758Z,2.61
2023-03-16T08:13:56.762Z,2.97
2023-03-16T08:17:07.298Z,3.08
2023-03-16T08:20:21.762Z,3.14
2023-03-16T08:23:36.210Z,3.27
2023-03-16T08:26:45.439Z,3.36
2023-03-16T08:29:54.093Z,3.24
2023-03-16T08:33:23.139Z,3.07
2023-03-16T08:36:31.786Z,2.98
2023-03-16T08:39:51.735Z,3.00
2023-03-16T08:43:17.219Z,2.93
2023-03-16T08:46:24.396Z,2.92
2023-03-16T08:49:52.335Z,2.76
2023-03-16T08:52:58.305Z,2.79
2023-03-16T08:56:04.829Z,2.84
2023-03-16T08:59:30.826Z,2.91
2023-03-16T09:02:45.753Z,2.98
2023-03-16T09:05:51.615Z,3.03
2023-03-16T09:09:09.509Z,2.96
2023-03-16T09:12:26.426Z,3.06
2023-03-16T09:15:51.817Z,3.31
2023-03-16T09:19:16.956Z,3.39
2023-03-16T09:22:28.559Z,3.45
2023-03-16T09:25:54.654Z,3.45
2023-03-16T09:29:21.920Z,3.46
2023-03-16T09:32:30.953Z,3.52
2023-03-16T09:35:46.527Z,3.66
2023-03-16T09:39:03.842Z,3.79
2023-03-16T09:42:35.324Z,3.92
2023-03-16T09:45:54.157Z,4.00
2023-03-16T09:49:00.500Z,4.11
2023-03-16T09:52:33.438Z,4.33
2023-03-16T09:55:50.186Z,4.40
2023-03-16T09:59:10.555Z,4.29
2023-03-16T10:02:32.088Z,4.19
2023-03-16T10:05:41.123Z,4.39
2023-03-16T10:08:53.166Z,4.47
2023-03-16T10:11:59.797Z,4.56
2023-03-16T10:15:11.907Z,4.71
2023-03-16T10:18:32.511Z,4.75
2023-03-16T10:21:52.517Z,4.61
2023-03-16T10:25:12.958Z,4.51
2023-03-16T10:28:29.665Z,4.54
2023-03-16T10:31:38.449Z,4.71
2023-03-16T10:34:45.639Z,4.77
2023-03-16T10:38:10.556Z,4.88
2023-03-16T10:41:25.533Z,5.00
2023-03-16T10:44:30.994Z,4.80
2023-03-16T10:47:45.086Z,4.62
2023-03-16T10:51:04.935Z,4.45
2023-03-16T10:54:16.031Z,4.42
2023-03-16T10:57:34.075Z,4.55
2023-03-16T11:00:45.571Z,4.97
2023-03-16T11:03:52.241Z,5.35
2023-03-16T11:07:09.248Z,5.27
2023-03-16T11:10:34.587Z,5.14
2023-03-16T11:13:47.169Z,5.18
2023-03-16T11:17:10.795Z,5.21
2023-03-16T11:20:18.323Z,5.22
2023-03-16T11:23:35.781Z,5.30
2023-03-16T11:26:55.786Z,5.49
2023-03-16T11:30:24.963Z,5.72
2023-03-16T11:33:51.237Z,5.77
2023-03-16T11:37:19.412Z,5.93
2023-03-16T11:40:44.788Z,6.11
2023-03-16T11:43:52.912Z,6.25
2023-03-16T11:47:18.864Z,6.51
2023-03-16T11:50:49.823Z,6.75
2023-03-16T11:54:02.601Z,6.72
2023-03-16T11:57:29.528Z,6.54
2023-03-16T12:00:51.667Z,6.53
2023-03-16T12:04:07.619Z,6.81
2023-03-16T12:07:25.925Z,6.91
2023-03-16T12:10:36.326Z,6.89
2023-03-16T12:14:01.682Z,6.84
2023-03-16T12:17:11.146Z,6.87
2023-03-16T12:20:29.601Z,6.59
2023-03-16T12:23:53.486Z,6.28
2023-03-16T12:27:02.638Z,6.29
2023-03-16T12:30:25.961Z,6.55
2023-03-16T12:33:44.764Z,6.96
2023-03-16T12:37:19.656Z,7.05
2023-03-16T12:40:33.931Z,6.92
2023-03-16T12:44:03.316Z,6.79
2023-03-16T12:47:28.520Z,6.65
2023-03-16T12:50:34.401Z,6.74
2023-03-16T12:53:55.127Z,7.01
2023-03-16T12:57:22.312Z,7.35
2023-03-16T13:00:36.004Z,7.62
2023-03-16T13:03:45.577Z,7.59
2023-03-16T13:07:06.155Z,7.56
2023-03-16T13:10:14.763Z,7.27
2023-03-16T13:13:30.472Z,6.90
2023-03-16T13:16:39.165Z,6.78
2023-03-16T13:19:47.786Z,6.69
2023-03-16T13:23:10.507Z,6.51
2023-03-16T13:26:42.411Z,6.55
2023-03-16T13:30:18.068Z,6.64
2023-03-16T13:33:44.092Z,6.87
2023-03-16T13:37:14.529Z,7.05
2023-03-16T13:40:22.268Z,7.03
2023-03-16T13:43:44.257Z,7.07
2023-03-16T13:46:52.574Z,7.23
2023-03-16T13:50:03.806Z,7.36
2023-03-16T13:53:15.870Z,7.30
2023-03-16T13:56:33.256Z,7.06
2023-03-16T14:00:05.847Z,7.04
2023-03-16T14:03:16.329Z,6.86
2023-03-16T14:06:42.409Z,6.92
2023-03-16T14:09:52.595Z,7.18
2023-03-16T14:12:59.745Z,7.27
2023-03-16T14:16:14.500Z,7.46
2023-03-16T14:19:24.686Z,7.68
2023-03-16T14:22:31.960Z,8.05
2023-03-16T14:25:40.919Z,8.37
2023-03-16T14:29:09.576Z,8.59
2023-03-16T14:32:28.326Z,8.75
2023-03-16T14:35:57.213Z,8.80
2023-03-16T14:39:13.350Z,9.09
2023-03-16T14:42:22.260Z,9.38
2023-03-16T14:45:48.587Z,9.77
2023-03-16T14:49:00.335Z,9.90
2023-03-16T14:52:19.000Z,9.81
2023-03-16T14:55:24.922Z,9.77
2023-03-16T14:58:36.521Z,9.69
2023-03-16T15:01:46.858Z,9.73
2023-03-16T15:05:20.944Z,9.76
2023-03-16T15:08:43.561Z,9.52
2023-03-16T15:11:55.380Z,9.35
2023-03-16T15:15:16.177Z,9.26
2023-03-16T15:18:24.232Z,9.23
2023-03-16T15:21:41.247Z,9.19
2023-03-16T15:24:46.681Z,9.19
2023-03-16T15:27:52.847Z,9.06
2023-03-16T15:31:02.546Z,8.93
2023-03-16T15:34:07.995Z,8.80
2023-03-16T15:37:15.539Z,8.77
2023-03-16T15:40:25.300Z,8.76
2023-03-16T15:43:32.188Z,8.74
2023-03-16T15:46:46.805Z,8.79
2023-03-16T15:49:59.598Z,8.82
2023-03-16T15:53:30.397Z,8.93
2023-03-16T15:56:52.770Z,9.04
2023-03-16T16:00:02.471Z,9.08
2023-03-16T16:03:12.826Z,9.15
2023-03-16T16:06:36.742Z,9.26
2023-03-16T16:09:44.390Z,9.32
2023-03-16T16:12:52.297Z,9.33
2023-03-16T16:16:00.129Z,9.29
2023-03-16T16:19:05.824Z,9.28
2023-03-16T16:22:16.539Z,9.34
2023-03-16T16:25:33.178Z,9.33
2023-03-16T16:28:59.601Z,9.14
2023-03-16T16:32:24.276Z,8.90
2023-03-16T16:35:39.770Z,8.49
2023-03-16T16:38:45.596Z,8.07
2023-03-16T16:42:04.218Z,7.63
2023-03-16T16:45:15.826Z,7.22
2023-03-16T16:48:30.283Z,6.81
2023-03-16T16:51:56.137Z,6.40
2023-03-16T16:55:11.943Z,6.04
2023-03-16T16:58:24.592Z,5.73
2023-03-16T17:01:51.902Z,5.37
2023-03-16T17:05:08.319Z,5.03
2023-03-16T17:08:14.330Z,4.73
2023-03-16T17:11:28.762Z,4.43
2023-03-16T17:14:54.509Z,4.10
2023-03-16T17:18:07.968Z,3.84
2023-03-16T17:21:17.141Z,3.56
2023-03-16T17:24:35.703Z,3.25
2023-03-16T17:28:01.505Z,2.97
2023-03-16T17:31:27.696Z,2.77
2023-03-16T17:34:42.364Z,2.55
2023-03-16T17:38:17.689Z,2.38
2023-03-16T17:41:26.699Z,2.21
2023-03-16T17:44:37.107Z,2.03
2023-03-16T17:47:52.597Z,1.89
2023-03-16T17:51:15.239Z,1.81
2023-03-16T17:54:34.756Z,1.74
2023-03-16T17:57:54.363Z,1.62
2023-03-16T18:01:28.350Z,1.52
2023-03-16T18:04:54.065Z,1.44
2023-03-16T18:08:21.907Z,1.36
2023-03-16T18:11:35.623Z,1.26
2023-03-16T18:14:58.442Z,1.17
2023-03-16T18:18:08.734Z,1.10
2023-03-16T18:21:33.585Z,1.09
2023-03-16T18:24:59.999Z,1.12
2023-03-16T18:28:09.925Z,1.17
2023-03-16T18:31:21.940Z,1.20
2023-03-16T18:34:47.647Z,1.17
2023-03-16T18:38:18.025Z,1.14
2023-03-16T18:41:44.747Z,1.04
2023-03-16T18:45:04.300Z,0.99
2023-03-16T18:48:24.841Z,0.97
2023-03-16T18:51:51.729Z,0.94
2023-03-16T18:55:16.741Z,0.88
2023-03-16T18:58:41.131Z,0.77
2023-03-16T19:02:17.692Z,0.68
2023-03-16T19:05:30.252Z,0.65
2023-03-16T19:08:42.009Z,0.63
2023-03-16T19:11:53.279Z,0.56
2023-03-16T19:15:03.368Z,0.46
2023-03-16T19:18:29.411Z,0.46
2023-03-16T19:21:56.484Z,0.47
2023-03-16T19:25:25.260Z,0.47
2023-03-16T19:28:43.328Z,0.43
2023-03-16T19:32:00.848Z,0.38
2023-03-16T19:35:18.521Z,0.35
2023-03-16T19:38:24.696Z,0.34
2023-03-16T19:41:34.439Z,0.30
2023-03-16T19:44:51.197Z,0.25
2023-03-16T19:48:12.746Z,0.23
2023-03-16T19:51:32.902Z,0.17
2023-03-16T19:54:44.109Z,0.11
2023-03-16T19:58:19.079Z,0.06
2023-03-16T20:01:33.025Z,-0.02
2023-03-16T20:04:38.650Z,-0.08
2023-03-16T20:07:44.550Z,-0.16
2023-03-16T20:11:15.483Z,-0.23
2023-03-16T20:14:41.532Z,-0.29
2023-03-16T20:17:51.139Z,-0.34
2023-03-16T20:21:17.569Z,-0.40
2023-03-16T20:24:24.137Z,-0.44
2023-03-16T20:27:29.941Z,-0.44
2023-03-16T20:30:43.704Z,-0.44
2023-03-16T20:34:00.455Z,-0.42
2023-03-16T20:37:20.825Z,-0.40
2023-03-16T20:40:40.142Z,-0.39
2023-03-16T20:44:00.059Z,-0.37
2023-03-16T20:47:18.990Z,-0.35
2023-03-16T20:50:34.000Z,-0.32
2023-03-16T20:53:58.766Z,-0.28
2023-03-16T20:57:12.399Z,-0.22
2023-03-16T21:00:39.196Z,-0.17
2023-03-16T21:03:52.061Z,-0.17
2023-03-16T21:07:10.851Z,-0.17
2023-03-16T21:10:28.314Z,-0.17
2023-03-16T21:13:36.935Z,-0.15
2023-03-16T21:16:45.535Z,-0.12
2023-03-16T21:20:02.499Z,-0.12
2023-03-16T21:23:22.036Z,-0.12
2023-03-16T21:26:30.004Z,-0.12
2023-03-16T21:29:56.935Z,-0.12
2023-03-16T21:33:26.076Z,-0.13
2023-03-16T21:36:44.341Z,-0.14
2023-03-16T21:40:02.600Z,-0.16
2023-03-16T21:43:28.687Z,-0.18
2023-03-16T21:46:47.367Z,-0.19
2023-03-16T21:49:53.881Z,-0.20
2023-03-16T21:53:11.522Z,-0.19
2023-03-16T21:56:30.653Z,-0.17
2023-03-16T21:59:45.764Z,-0.18
2023-03-16T22:03:03.422Z,-0.18
2023-03-16T22:06:23.797Z,-0.19
2023-03-16T22:09:49.567Z,-0.17
2023-03-16T22:13:00.179Z,-0.15
2023-03-16T22:16:27.060Z,-0.14
2023-03-16T22:19:53.162Z,-0.15
2023-03-16T22:23:27.547Z,-0.20
2023-03-16T22:26:53.801Z,-0.23
2023-03-16T22:30:22.190Z,-0.28
2023-03-16T22:33:48.709Z,-0.33
2023-03-16T22:37:17.479Z,-0.35
2023-03-16T22:40:43.846Z,-0.34
2023-03-16T22:44:13.352Z,-0.30
2023-03-16T22:47:39.240Z,-0.23
2023-03-16T22:51:05.644Z,-0.13
2023-03-16T22:54:31.669Z,-0.01
2023-03-16T22:58:01.442Z,0.10
2023-03-16T23:01:30.166Z,0.18
2023-03-16T23:04:56.080Z,0.23
2023-03-16T23:08:23.855Z,0.29
2023-03-16T23:11:53.436Z,0.31
2023-03-16T23:15:21.150Z,0.30
2023-03-16T23:18:46.781Z,0.28
2023-03-16T23:22:13.646Z,0.24
2023-03-16T23:25:39.376Z,0.23
2023-03-16T23:29:05.231Z,0.22
2023-03-16T23:32:31.209Z,0.24
2023-03-16T23:35:57.111Z,0.27
2023-03-16T23:39:24.077Z,0.31
2023-03-16T23:42:49.846Z,0.34
2023-03-16T23:46:18.422Z,0.36
2023-03-16T23:49:44.480Z,0.36
2023-03-16T23:53:13.925Z,0.35
2023-03-16T23:56:38.070Z,0.34
